Time;durP1;ratioP1;P1;durP2;ratioP2;P2;SDS_P1;SDS_P2;PMS_P1;PMS_P2;Temp;Humidity;BMP_temperature;BMP_pressure;BME280_temperature;BME280_humidity;BME280_pressure;Samples;Min_cycle;Max_cycle;Signal;HPM_P1;HPM_P2
2022/07/28 00:01:05;;;;;;;8.57;3.23;;;17.70;99.90;;;;;;4955467;29;20290;-77
2022/07/28 00:03:32;;;;;;;4.97;3.10;;;17.70;99.90;;;;;;4940947;29;20629;-77
2022/07/28 00:05:59;;;;;;;5.20;3.20;;;17.70;99.90;;;;;;4936431;29;20262;-77
2022/07/28 00:08:26;;;;;;;7.57;3.50;;;17.60;99.90;;;;;;4936493;29;20743;-77
2022/07/28 00:10:53;;;;;;;5.43;3.03;;;17.60;99.90;;;;;;4936468;29;20235;-77
2022/07/28 00:13:22;;;;;;;7.23;3.40;;;17.60;99.90;;;;;;4936629;29;20207;-77
2022/07/28 00:15:49;;;;;;;5.37;3.07;;;17.60;99.90;;;;;;4936031;29;20243;-77
2022/07/28 00:18:16;;;;;;;6.67;2.90;;;17.60;99.90;;;;;;4936787;29;20235;-77
2022/07/28 00:20:43;;;;;;;7.13;3.20;;;17.60;99.90;;;;;;4936442;29;20247;-77
2022/07/28 00:23:10;;;;;;;6.73;3.10;;;17.50;99.90;;;;;;4936318;29;20235;-77
2022/07/28 00:25:37;;;;;;;7.17;3.50;;;17.50;99.90;;;;;;4936744;29;20334;-77
2022/07/28 00:28:04;;;;;;;5.50;3.10;;;17.40;99.90;;;;;;4936559;29;20239;-77
2022/07/28 00:30:33;;;;;;;5.03;3.50;;;17.40;99.90;;;;;;4936436;29;20211;-77
2022/07/28 00:33:00;;;;;;;6.47;3.77;;;17.40;99.90;;;;;;4955036;28;20207;-77
2022/07/28 00:35:27;;;;;;;6.13;3.73;;;17.40;99.90;;;;;;4955216;29;20246;-77
2022/07/28 00:37:54;;;;;;;6.37;3.70;;;17.40;99.90;;;;;;4955184;29;20249;-77
2022/07/28 00:40:21;;;;;;;6.67;3.40;;;17.40;99.90;;;;;;4955441;29;20242;-77
2022/07/28 00:42:48;;;;;;;4.67;3.50;;;17.40;99.90;;;;;;4955645;29;20577;-77
2022/07/28 00:45:15;;;;;;;5.80;3.30;;;17.30;99.90;;;;;;4954534;29;20366;-77
2022/07/28 00:47:43;;;;;;;5.93;3.50;;;17.20;99.90;;;;;;4955351;29;20234;-77
2022/07/28 00:50:10;;;;;;;5.37;3.17;;;17.10;99.90;;;;;;4955144;29;20234;-77
2022/07/28 00:52:37;;;;;;;5.23;3.10;;;17.10;99.90;;;;;;4955281;29;20270;-77
2022/07/28 00:55:05;;;;;;;4.37;3.17;;;17.10;99.90;;;;;;4955078;29;20287;-77
2022/07/28 00:57:32;;;;;;;6.47;3.30;;;17.10;99.90;;;;;;4955030;29;20313;-77
2022/07/28 00:59:59;;;;;;;6.50;3.57;;;17.00;99.90;;;;;;4954282;28;20270;-77
2022/07/28 01:02:26;;;;;;;4.73;3.10;;;17.10;99.90;;;;;;4949149;29;20258;-77
2022/07/28 01:04:55;;;;;;;4.63;2.97;;;17.00;99.90;;;;;;4935750;29;20228;-77
2022/07/28 01:07:32;;;;;;;5.40;3.20;;;17.10;99.90;;;;;;4935867;29;20286;-76
2022/07/28 01:10:08;;;;;;;5.33;3.50;;;17.10;99.90;;;;;;4935539;29;20858;-77
2022/07/28 01:12:45;;;;;;;4.47;2.73;;;17.10;99.90;;;;;;4935406;29;20303;-77
2022/07/28 01:15:19;;;;;;;4.40;3.10;;;17.10;99.90;;;;;;4935484;29;20660;-77
2022/07/28 01:17:54;;;;;;;5.10;2.80;;;17.10;99.90;;;;;;4935672;29;20586;-77
2022/07/28 01:20:28;;;;;;;4.43;2.90;;;17.10;99.90;;;;;;4935537;29;20274;-77
2022/07/28 01:23:05;;;;;;;6.43;3.30;;;17.10;99.90;;;;;;4935775;29;20226;-77
2022/07/28 01:25:46;;;;;;;7.13;2.73;;;17.10;99.90;;;;;;4935575;29;20597;-77
2022/07/28 01:28:25;;;;;;;4.13;2.87;;;17.00;99.90;;;;;;4935516;29;20274;-77
2022/07/28 01:30:57;;;;;;;4.80;2.83;;;17.10;99.90;;;;;;4935360;29;20586;-77
2022/07/28 01:33:29;;;;;;;4.67;2.77;;;17.10;99.90;;;;;;4935728;29;20278;-77
2022/07/28 01:36:01;;;;;;;7.83;3.50;;;17.10;99.90;;;;;;4935655;29;20196;-76
2022/07/28 01:38:31;;;;;;;6.53;3.10;;;17.00;99.90;;;;;;4935574;29;20231;-77
2022/07/28 01:41:00;;;;;;;5.63;3.10;;;16.90;99.90;;;;;;4935335;29;20731;-77
2022/07/28 01:43:31;;;;;;;5.30;3.27;;;16.90;99.90;;;;;;4934893;29;20225;-77
2022/07/28 01:46:01;;;;;;;5.40;3.13;;;16.90;99.90;;;;;;4937752;29;20231;-77
2022/07/28 01:48:29;;;;;;;5.03;3.37;;;17.00;99.90;;;;;;4938967;29;20667;-77
2022/07/28 01:50:57;;;;;;;3.70;3.10;;;17.00;99.90;;;;;;4939278;29;20235;-77
2022/07/28 01:53:26;;;;;;;6.50;3.20;;;16.90;99.90;;;;;;4938861;29;20731;-77
2022/07/28 01:55:54;;;;;;;6.20;2.77;;;16.90;99.90;;;;;;4938829;29;20235;-77
2022/07/28 01:58:23;;;;;;;3.67;2.63;;;16.90;99.90;;;;;;4940032;28;20669;-77
2022/07/28 02:00:51;;;;;;;6.53;2.80;;;17.00;99.90;;;;;;4958236;29;20203;-77
2022/07/28 02:03:23;;;;;;;3.97;2.73;;;17.00;99.90;;;;;;4958374;29;20246;-77
2022/07/28 02:05:52;;;;;;;3.37;2.40;;;17.00;99.90;;;;;;4958174;29;20231;-77
2022/07/28 02:08:20;;;;;;;5.23;2.53;;;17.00;99.90;;;;;;4958033;29;20254;-77
2022/07/28 02:13:33;;;;;;;3.70;2.90;;;16.90;99.90;;;;;;4956597;29;20318;-77
2022/07/28 02:16:02;;;;;;;4.90;2.80;;;16.90;99.90;;;;;;4957653;29;20686;-77
2022/07/28 02:18:32;;;;;;;6.30;2.90;;;16.80;99.90;;;;;;4957793;29;20235;-77
2022/07/28 02:21:00;;;;;;;5.53;2.87;;;16.70;99.90;;;;;;4957850;29;20237;-77
2022/07/28 02:23:28;;;;;;;8.87;3.10;;;16.70;99.90;;;;;;4958008;29;20235;-77
2022/07/28 02:25:57;;;;;;;5.00;2.87;;;16.60;99.90;;;;;;4957369;29;20246;-77
2022/07/28 02:28:26;;;;;;;6.47;3.30;;;16.50;99.90;;;;;;4957410;29;20302;-77
2022/07/28 02:30:59;;;;;;;4.90;2.83;;;16.50;99.90;;;;;;4957651;29;20242;-77
2022/07/28 02:33:28;;;;;;;9.83;3.10;;;16.40;99.90;;;;;;4957864;29;20234;-77
2022/07/28 02:36:00;;;;;;;5.80;2.83;;;16.30;99.90;;;;;;4957494;29;20543;-77
2022/07/28 02:38:30;;;;;;;6.80;3.00;;;16.30;99.90;;;;;;4957443;29;20218;-77
2022/07/28 02:41:00;;;;;;;6.67;3.27;;;16.20;99.90;;;;;;4956974;29;20234;-77
2022/07/28 02:43:31;;;;;;;4.57;3.20;;;16.20;99.90;;;;;;4957632;29;20291;-76
2022/07/28 02:46:10;;;;;;;4.03;2.83;;;16.30;99.90;;;;;;4957467;29;20674;-76
2022/07/28 02:48:38;;;;;;;9.00;3.37;;;16.20;99.90;;;;;;4957247;29;20230;-77
2022/07/28 02:51:08;;;;;;;5.37;2.90;;;16.20;99.90;;;;;;4957350;29;20604;-76
2022/07/28 02:53:37;;;;;;;6.77;3.10;;;16.20;99.90;;;;;;4957267;29;20694;-77
2022/07/28 02:56:05;;;;;;;7.53;3.43;;;16.20;99.90;;;;;;4956347;28;20207;-77
2022/07/28 02:58:34;;;;;;;6.33;3.23;;;16.20;99.90;;;;;;4956514;29;20266;-76
2022/07/28 03:01:02;;;;;;;6.63;3.40;;;16.10;99.90;;;;;;4956792;28;20648;-77
2022/07/28 03:03:30;;;;;;;3.73;3.30;;;16.10;99.90;;;;;;4956809;28;20294;-77
2022/07/28 03:05:57;;;;;;;5.70;3.57;;;16.10;99.90;;;;;;4956975;29;20269;-76
2022/07/28 03:08:25;;;;;;;5.20;3.20;;;16.10;99.90;;;;;;4956569;29;20294;-76
2022/07/28 03:11:06;;;;;;;5.07;3.07;;;16.20;99.90;;;;;;4956662;29;20270;-76
2022/07/28 03:13:33;;;;;;;8.47;3.20;;;16.20;99.90;;;;;;4957238;29;20203;-76
2022/07/28 03:16:01;;;;;;;5.60;3.23;;;16.20;99.90;;;;;;4956632;29;20234;-76
2022/07/28 03:18:28;;;;;;;5.67;3.33;;;16.10;99.90;;;;;;4956762;29;20203;-76
2022/07/28 03:20:55;;;;;;;6.40;3.43;;;16.10;99.90;;;;;;4956615;28;20246;-76
2022/07/28 03:23:28;;;;;;;6.10;3.50;;;16.10;99.90;;;;;;4956670;29;20239;-76
2022/07/28 03:26:00;;;;;;;6.13;3.27;;;16.00;99.90;;;;;;4956463;29;20262;-76
2022/07/28 03:28:28;;;;;;;7.50;3.10;;;15.90;99.90;;;;;;4956719;29;20298;-76
2022/07/28 03:30:59;;;;;;;9.33;3.27;;;15.80;99.90;;;;;;4956519;29;20242;-76
2022/07/28 03:33:26;;;;;;;4.17;3.03;;;15.70;99.90;;;;;;4956243;29;20247;-76
2022/07/28 03:35:55;;;;;;;5.60;3.50;;;15.60;99.90;;;;;;4956559;29;20319;-76
2022/07/28 03:38:25;;;;;;;7.63;3.57;;;15.50;99.90;;;;;;4956164;29;20238;-76
2022/07/28 03:40:55;;;;;;;5.60;3.67;;;15.40;99.90;;;;;;4956421;29;20689;-76
2022/07/28 03:43:26;;;;;;;5.93;3.80;;;15.30;99.90;;;;;;4956126;29;20242;-76
2022/07/28 03:45:53;;;;;;;7.03;3.23;;;15.30;99.90;;;;;;4956531;29;20289;-76
2022/07/28 03:48:22;;;;;;;6.33;3.30;;;15.30;99.90;;;;;;4956217;29;20694;-76
2022/07/28 03:50:49;;;;;;;5.60;3.30;;;15.20;99.90;;;;;;4956199;29;20675;-76
2022/07/28 03:53:22;;;;;;;4.07;3.17;;;15.10;99.90;;;;;;4955835;29;20270;-76
2022/07/28 03:55:50;;;;;;;6.67;4.00;;;15.10;99.90;;;;;;4956021;29;20290;-76
2022/07/28 03:58:19;;;;;;;8.33;4.70;;;15.10;99.90;;;;;;4955716;28;20229;-76
2022/07/28 04:00:47;;;;;;;4.97;3.70;;;15.20;99.90;;;;;;4956055;29;20203;-76
2022/07/28 04:03:14;;;;;;;5.33;3.60;;;15.10;99.90;;;;;;4955676;29;20334;-77
2022/07/28 04:05:41;;;;;;;6.27;3.90;;;15.10;99.90;;;;;;4955851;29;20319;-76
2022/07/28 04:08:07;;;;;;;7.90;3.97;;;15.10;99.90;;;;;;4955320;28;20262;-76
2022/07/28 04:10:34;;;;;;;5.13;3.90;;;15.10;99.90;;;;;;4955847;29;20239;-76
2022/07/28 04:13:01;;;;;;;5.30;3.40;;;15.10;99.90;;;;;;4955688;28;20294;-76
2022/07/28 04:15:31;;;;;;;8.57;4.23;;;15.10;99.90;;;;;;4955471;29;20663;-76
2022/07/28 04:17:58;;;;;;;8.77;3.90;;;15.20;99.90;;;;;;4955429;28;20203;-76
2022/07/28 04:20:27;;;;;;;7.20;4.17;;;15.20;99.90;;;;;;4955462;29;20241;-76
2022/07/28 04:22:54;;;;;;;8.43;4.37;;;15.20;99.90;;;;;;4955158;29;20746;-76
2022/07/28 04:25:24;;;;;;;5.63;3.70;;;15.20;99.90;;;;;;4955634;28;20235;-76
2022/07/28 04:27:52;;;;;;;5.33;3.97;;;15.30;99.90;;;;;;4955783;29;20207;-76
2022/07/28 04:30:23;;;;;;;7.93;4.27;;;15.20;99.90;;;;;;4945055;29;20251;-76
2022/07/28 04:32:54;;;;;;;6.60;4.27;;;15.20;99.90;;;;;;4936250;29;20277;-76
2022/07/28 04:35:24;;;;;;;5.20;4.67;;;15.10;99.90;;;;;;4936148;29;20215;-76
2022/07/28 04:37:53;;;;;;;6.30;4.23;;;15.10;99.90;;;;;;4936041;29;20689;-76
2022/07/28 04:40:21;;;;;;;7.33;4.37;;;15.20;99.90;;;;;;4936589;29;20263;-76
2022/07/28 04:42:48;;;;;;;8.63;4.30;;;15.20;99.90;;;;;;4936061;29;20210;-76
2022/07/28 04:45:15;;;;;;;10.00;4.53;;;15.20;99.90;;;;;;4935738;29;20228;-76
2022/07/28 04:47:42;;;;;;;7.57;4.43;;;15.20;99.90;;;;;;4935823;29;20723;-76
2022/07/28 04:50:14;;;;;;;8.67;4.60;;;15.30;99.90;;;;;;4935703;29;20295;-76
2022/07/28 04:52:41;;;;;;;7.00;4.30;;;15.30;99.90;;;;;;4935867;29;20208;-76
2022/07/28 04:55:09;;;;;;;5.10;4.33;;;15.40;99.90;;;;;;4935815;29;20789;-76
2022/07/28 04:57:36;;;;;;;8.57;4.80;;;15.50;99.90;;;;;;4935491;29;20255;-76
2022/07/28 05:00:11;;;;;;;6.13;4.50;;;15.50;99.90;;;;;;4950522;29;20322;-76
2022/07/28 05:02:38;;;;;;;5.23;4.03;;;15.50;99.90;;;;;;4954733;29;20667;-76
2022/07/28 05:05:06;;;;;;;6.87;4.40;;;15.60;99.90;;;;;;4954783;29;20278;-76
2022/07/28 05:07:34;;;;;;;7.30;4.70;;;15.60;99.90;;;;;;4954909;29;20266;-76
2022/07/28 05:10:01;;;;;;;6.67;4.63;;;15.60;99.90;;;;;;4955136;29;20245;-76
2022/07/28 05:12:28;;;;;;;6.60;4.37;;;15.60;99.90;;;;;;4954977;29;20267;-76
2022/07/28 05:14:54;;;;;;;8.13;4.60;;;15.70;99.90;;;;;;4954942;29;20199;-76
2022/07/28 05:17:21;;;;;;;8.67;4.50;;;15.70;99.90;;;;;;4954867;29;20657;-76
2022/07/28 05:19:48;;;;;;;8.03;4.20;;;15.80;99.90;;;;;;4953475;29;20285;-76
2022/07/28 05:22:16;;;;;;;8.10;4.33;;;15.90;99.90;;;;;;4955070;29;20231;-77
2022/07/28 05:24:44;;;;;;;9.50;4.77;;;16.00;99.90;;;;;;4955017;29;20298;-76
2022/07/28 05:27:12;;;;;;;6.47;4.33;;;16.10;99.90;;;;;;4954823;29;20262;-76
2022/07/28 05:29:40;;;;;;;5.93;3.83;;;16.10;99.90;;;;;;4954731;29;20203;-76
2022/07/28 05:32:07;;;;;;;6.60;4.40;;;16.10;99.90;;;;;;4954266;29;20203;-76
2022/07/28 05:34:35;;;;;;;6.43;4.07;;;16.10;99.90;;;;;;4954299;29;20630;-76
2022/07/28 05:37:02;;;;;;;6.80;4.13;;;16.10;99.90;;;;;;4954662;29;20199;-76
2022/07/28 05:39:31;;;;;;;10.00;4.00;;;16.10;99.90;;;;;;4955086;29;20254;-76
2022/07/28 05:42:00;;;;;;;7.13;4.10;;;16.20;99.90;;;;;;4954551;29;20663;-76
2022/07/28 05:44:27;;;;;;;6.20;4.03;;;16.30;99.90;;;;;;4954726;29;20319;-77
2022/07/28 05:46:54;;;;;;;6.90;3.90;;;16.40;99.90;;;;;;4954287;29;20789;-76
2022/07/28 05:49:22;;;;;;;7.33;4.17;;;16.40;99.90;;;;;;4954116;29;20202;-76
2022/07/28 05:51:49;;;;;;;4.20;3.80;;;16.50;99.90;;;;;;4954316;29;20206;-76
2022/07/28 05:54:16;;;;;;;6.57;3.80;;;16.70;99.90;;;;;;4954580;29;20285;-77
2022/07/28 05:56:43;;;;;;;6.83;3.70;;;16.90;99.90;;;;;;4954659;29;20230;-76
2022/07/28 05:59:13;;;;;;;6.53;4.10;;;17.00;99.90;;;;;;4954168;29;20286;-76
2022/07/28 06:01:40;;;;;;;7.60;4.00;;;17.10;99.90;;;;;;4954314;29;20611;-76
2022/07/28 06:04:07;;;;;;;10.50;3.93;;;17.20;99.90;;;;;;4954037;29;20203;-76
2022/07/28 06:06:34;;;;;;;8.97;3.77;;;17.30;99.90;;;;;;4954217;28;20277;-76
2022/07/28 06:09:01;;;;;;;7.63;3.90;;;17.40;99.90;;;;;;4954218;29;20246;-76
2022/07/28 06:11:28;;;;;;;4.53;3.17;;;17.40;99.90;;;;;;4954627;29;20234;-76
2022/07/28 06:13:54;;;;;;;4.33;3.30;;;17.50;99.90;;;;;;4954196;29;20238;-77
2022/07/28 06:16:23;;;;;;;7.47;3.80;;;17.60;99.90;;;;;;4954069;29;20290;-76
2022/07/28 06:18:50;;;;;;;4.47;3.43;;;17.90;99.90;;;;;;4954016;29;20235;-77
2022/07/28 06:21:17;;;;;;;4.33;3.27;;;18.10;99.90;;;;;;4954228;29;20286;-76
2022/07/28 06:23:45;;;;;;;7.10;3.07;;;18.20;99.90;;;;;;4954246;29;20298;-76
2022/07/28 06:26:12;;;;;;;6.40;3.23;;;18.40;99.90;;;;;;4953899;29;20227;-76
2022/07/28 06:28:39;;;;;;;4.97;3.03;;;18.50;99.90;;;;;;4954112;29;20694;-76
2022/07/28 06:31:05;;;;;;;6.07;2.70;;;18.70;99.90;;;;;;4954281;28;20246;-76
2022/07/28 06:33:34;;;;;;;5.20;2.90;;;18.80;99.90;;;;;;4957024;29;20619;-76
2022/07/28 06:36:01;;;;;;;4.80;2.60;;;18.90;99.90;;;;;;4957675;29;20245;-76
2022/07/28 06:38:28;;;;;;;3.57;2.57;;;19.40;99.90;;;;;;4957154;29;20651;-77
2022/07/28 06:40:54;;;;;;;5.50;2.73;;;19.60;99.90;;;;;;4957397;29;20207;-76
2022/07/28 06:43:21;;;;;;;5.75;2.63;;;19.60;99.90;;;;;;4957161;29;20722;-77
2022/07/28 06:45:50;;;;;;;4.07;2.40;;;19.90;99.90;;;;;;4957269;29;20231;-76
2022/07/28 06:48:17;;;;;;;6.03;2.38;;;20.10;99.90;;;;;;4957205;29;20674;-76
2022/07/28 06:50:45;;;;;;;5.13;1.90;;;20.00;99.90;;;;;;4957335;29;20270;-76
2022/07/28 06:53:12;;;;;;;3.00;1.83;;;19.80;99.90;;;;;;4957199;28;20297;-76
2022/07/28 06:55:39;;;;;;;5.90;2.20;;;19.70;99.90;;;;;;4957287;28;20238;-76
2022/07/28 06:58:06;;;;;;;7.15;2.10;;;19.70;99.90;;;;;;4956906;29;20712;-76
2022/07/28 07:00:33;;;;;;;3.97;2.00;;;19.70;99.90;;;;;;4954457;28;20726;-77
2022/07/28 07:03:00;;;;;;;4.53;1.85;;;19.80;99.90;;;;;;4957167;28;20227;-77
2022/07/28 07:05:30;;;;;;;3.92;1.80;;;20.00;99.90;;;;;;4957342;29;20234;-76
2022/07/28 07:07:58;;;;;;;6.88;1.83;;;20.30;99.90;;;;;;4957234;29;20230;-76
2022/07/28 07:10:25;;;;;;;6.13;1.77;;;20.60;99.90;;;;;;4956870;29;20234;-77
2022/07/28 07:12:52;;;;;;;3.40;1.70;;;21.20;99.90;;;;;;4956921;29;20207;-77
2022/07/28 07:15:19;;;;;;;3.47;1.50;;;21.50;99.90;;;;;;4956668;29;20625;-77
2022/07/28 07:17:46;;;;;;;3.40;1.58;;;21.30;99.90;;;;;;4956232;29;20723;-77
2022/07/28 07:20:13;;;;;;;5.30;1.60;;;21.50;99.90;;;;;;4956895;29;20658;-77
2022/07/28 07:22:44;;;;;;;2.25;1.40;;;21.80;99.90;;;;;;4956700;29;20207;-77
2022/07/28 07:25:13;;;;;;;5.70;1.80;;;22.00;99.90;;;;;;4956760;29;20282;-77
2022/07/28 07:27:40;;;;;;;9.27;1.50;;;22.20;99.90;;;;;;4956640;29;20326;-77
2022/07/28 07:30:08;;;;;;;4.40;1.42;;;22.40;99.90;;;;;;4956572;29;20235;-77
2022/07/28 07:32:35;;;;;;;4.88;1.70;;;22.50;99.90;;;;;;4956204;29;20278;-77
2022/07/28 07:35:02;;;;;;;4.18;1.63;;;22.60;99.90;;;;;;4956438;28;20200;-77
2022/07/28 07:37:31;;;;;;;4.22;1.50;;;22.50;99.90;;;;;;4956803;29;20199;-77
2022/07/28 07:39:58;;;;;;;2.85;1.48;;;22.30;99.90;;;;;;4956351;29;20199;-77
2022/07/28 07:42:26;;;;;;;6.95;1.60;;;22.20;99.90;;;;;;4955795;28;20294;-77
2022/07/28 07:44:54;;;;;;;4.55;1.40;;;22.10;99.90;;;;;;4955925;29;20234;-77
2022/07/28 07:47:21;;;;;;;4.53;1.67;;;21.70;99.90;;;;;;4956332;29;20313;-77
2022/07/28 07:49:48;;;;;;;6.32;1.60;;;21.90;99.90;;;;;;4956157;29;20274;-77
2022/07/28 07:52:15;;;;;;;2.28;1.40;;;22.10;99.90;;;;;;4956068;29;20263;-77
2022/07/28 07:54:42;;;;;;;3.60;1.20;;;22.20;99.90;;;;;;4956367;28;20317;-77
2022/07/28 07:57:09;;;;;;;6.95;1.40;;;22.20;99.90;;;;;;4955974;28;20351;-77
2022/07/28 07:59:38;;;;;;;3.90;1.20;;;22.30;99.90;;;;;;4955624;28;20242;-77
2022/07/28 08:02:05;;;;;;;2.85;1.33;;;22.60;99.90;;;;;;4955886;29;20231;-77
2022/07/28 08:04:32;;;;;;;2.47;1.30;;;23.00;99.90;;;;;;4955818;29;20202;-77
2022/07/28 08:06:59;;;;;;;8.38;1.63;;;23.20;99.90;;;;;;4956008;29;20314;-77
2022/07/28 08:09:26;;;;;;;10.73;1.50;;;23.20;99.90;;;;;;4955576;29;20219;-77
2022/07/28 08:11:53;;;;;;;8.50;1.73;;;24.10;99.90;;;;;;4955390;29;20207;-77
2022/07/28 08:14:20;;;;;;;3.72;1.15;;;24.30;99.90;;;;;;4955557;29;20208;-77
2022/07/28 08:16:48;;;;;;;3.92;1.25;;;24.60;99.90;;;;;;4955693;29;20286;-76
2022/07/28 08:19:15;;;;;;;7.88;1.40;;;24.30;99.90;;;;;;4955595;29;20246;-77
2022/07/28 08:21:42;;;;;;;6.25;1.30;;;24.00;99.90;;;;;;4955998;29;20274;-77
2022/07/28 08:24:09;;;;;;;4.25;1.42;;;24.10;99.90;;;;;;4955353;29;20230;-77
2022/07/28 08:26:36;;;;;;;4.05;1.27;;;24.30;99.90;;;;;;4955690;29;20213;-77
2022/07/28 08:29:03;;;;;;;4.10;1.40;;;24.50;99.90;;;;;;4955029;29;20234;-77
2022/07/28 08:31:30;;;;;;;7.03;1.17;;;24.60;99.90;;;;;;4960528;28;20206;-77
2022/07/28 08:33:59;;;;;;;7.47;1.48;;;24.40;99.90;;;;;;4974768;28;20244;-77
2022/07/28 08:36:26;;;;;;;7.40;1.40;;;23.80;99.90;;;;;;4974872;28;20203;-77
2022/07/28 08:38:53;;;;;;;5.45;1.30;;;23.70;99.90;;;;;;4974871;28;20289;-77
2022/07/28 08:41:26;;;;;;;3.65;1.40;;;23.90;99.90;;;;;;4974473;28;20238;-77
2022/07/28 08:43:55;;;;;;;3.90;1.88;;;24.10;99.90;;;;;;4974255;28;20198;-77
2022/07/28 08:46:24;;;;;;;4.50;1.52;;;24.50;99.90;;;;;;4974529;28;20293;-77
2022/07/28 08:48:51;;;;;;;2.47;1.50;;;24.60;99.90;;;;;;4975090;28;20198;-77
2022/07/28 08:51:21;;;;;;;5.18;1.42;;;24.90;99.90;;;;;;4974376;28;20230;-77
2022/07/28 08:53:49;;;;;;;3.88;1.30;;;24.60;99.90;;;;;;4974245;28;20273;-77
2022/07/28 08:56:17;;;;;;;5.65;1.20;;;24.70;99.90;;;;;;4973409;28;20293;-77
2022/07/28 08:58:44;;;;;;;3.58;1.45;;;25.20;99.90;;;;;;4971748;28;20250;-77
2022/07/28 09:01:12;;;;;;;3.72;1.50;;;25.30;99.90;;;;;;4955129;29;20239;-77
2022/07/28 09:03:39;;;;;;;5.78;1.30;;;25.10;99.90;;;;;;4955007;29;20242;-77
2022/07/28 09:06:07;;;;;;;6.85;1.55;;;25.20;99.90;;;;;;4954868;29;20707;-77
2022/07/28 09:08:35;;;;;;;5.88;1.52;;;24.90;99.90;;;;;;4954651;29;20254;-77
2022/07/28 09:11:02;;;;;;;7.38;1.85;;;24.80;99.90;;;;;;4954659;29;20238;-77
2022/07/28 09:13:29;;;;;;;5.60;1.70;;;25.10;99.90;;;;;;4954723;29;20710;-77
2022/07/28 09:15:58;;;;;;;3.30;1.40;;;24.90;99.90;;;;;;4954895;29;20203;-78
2022/07/28 09:18:25;;;;;;;4.53;1.42;;;24.90;99.90;;;;;;4954715;28;20203;-77
2022/07/28 09:20:52;;;;;;;5.60;1.83;;;25.10;99.90;;;;;;4955197;29;20289;-77
2022/07/28 09:23:19;;;;;;;4.63;1.58;;;25.10;99.90;;;;;;4954993;29;20253;-77
2022/07/28 09:25:48;;;;;;;6.22;1.50;;;24.70;99.90;;;;;;4954643;29;20294;-77
2022/07/28 09:28:17;;;;;;;4.07;1.50;;;24.60;99.90;;;;;;4954633;29;20321;-77
2022/07/28 09:30:45;;;;;;;4.47;1.38;;;24.90;99.90;;;;;;4955012;29;20627;-77
2022/07/28 09:33:14;;;;;;;9.70;1.98;;;25.60;99.90;;;;;;4942859;28;20243;-77
2022/07/28 09:35:49;;;;;;;4.68;1.60;;;25.90;99.90;;;;;;4918914;29;20242;-77
2022/07/28 09:38:17;;;;;;;6.43;1.60;;;25.60;99.90;;;;;;4935531;29;20303;-77
2022/07/28 09:40:58;;;;;;;4.13;1.60;;;26.10;99.90;;;;;;4935296;29;20270;-78
2022/07/28 09:43:35;;;;;;;7.43;1.90;;;26.80;99.90;;;;;;4918618;29;20210;-77
2022/07/28 09:46:07;;;;;;;5.57;1.70;;;26.60;99.90;;;;;;4935374;29;20624;-77
2022/07/28 09:48:35;;;;;;;4.57;1.75;;;26.20;99.90;;;;;;4935537;29;20227;-77
2022/07/28 09:51:13;;;;;;;4.53;2.50;;;26.20;99.90;;;;;;4935248;29;20676;-77
2022/07/28 09:53:40;;;;;;;6.82;1.70;;;26.00;99.90;;;;;;4918430;29;20204;-77
2022/07/28 09:56:10;;;;;;;4.32;1.50;;;26.20;99.90;;;;;;4935070;29;20609;-77
2022/07/28 09:58:37;;;;;;;6.15;1.70;;;26.40;99.90;;;;;;4936376;29;20299;-77
2022/07/28 10:01:07;;;;;;;3.58;1.48;;;26.70;99.90;;;;;;4954294;29;20671;-77
2022/07/28 10:03:34;;;;;;;2.55;1.35;;;27.80;99.90;;;;;;4954287;28;20207;-77
2022/07/28 10:06:07;;;;;;;3.20;1.48;;;27.50;99.90;;;;;;4955469;28;20204;-77
2022/07/28 10:08:55;;;;;;;4.70;1.48;;;27.60;99.90;;;;;;4957942;28;20231;-77
2022/07/28 10:11:26;;;;;;;6.50;2.00;;;28.40;99.50;;;;;;4953794;29;20744;-77
2022/07/28 10:13:58;;;;;;;3.97;1.63;;;29.00;96.90;;;;;;4958173;29;20203;-77
2022/07/28 10:16:27;;;;;;;5.35;1.70;;;28.30;90.30;;;;;;4957923;29;20207;-77
2022/07/28 10:18:54;;;;;;;8.48;1.60;;;28.50;85.30;;;;;;4957605;29;20751;-77
2022/07/28 10:21:24;;;;;;;4.07;1.95;;;28.00;77.60;;;;;;4957863;29;20243;-77
2022/07/28 10:23:52;;;;;;;6.07;1.63;;;28.20;88.50;;;;;;4957211;29;20294;-77
2022/07/28 10:26:22;;;;;;;4.80;1.45;;;30.10;79.90;;;;;;4957671;29;20238;-77
2022/07/28 10:28:52;;;;;;;5.22;2.20;;;32.00;43.20;;;;;;4957840;29;20230;-78
2022/07/28 10:31:30;;;;;;;5.50;1.60;;;32.50;19.80;;;;;;4957701;29;20635;-78
2022/07/28 10:33:59;;;;;;;7.53;2.00;;;32.70;16.90;;;;;;4968274;28;20780;-76
2022/07/28 10:36:27;;;;;;;2.45;1.30;;;34.10;10.80;;;;;;4976986;28;20199;-78
2022/07/28 10:39:00;;;;;;;2.40;1.30;;;34.10;1.00;;;;;;4976338;28;20552;-76
2022/07/28 10:41:33;;;;;;;3.13;1.23;;;35.10;1.00;;;;;;4976729;28;20207;-78
2022/07/28 10:44:03;;;;;;;4.20;1.33;;;35.30;1.00;;;;;;4976570;28;20206;-76
2022/07/28 10:46:31;;;;;;;2.40;1.50;;;33.40;1.00;;;;;;4976581;28;20206;-78
2022/07/28 10:48:59;;;;;;;3.53;1.20;;;32.90;1.00;;;;;;4976173;28;20652;-78
2022/07/28 10:51:27;;;;;;;2.47;1.60;;;32.90;1.00;;;;;;4976516;28;20206;-78
2022/07/28 10:54:01;;;;;;;6.53;1.60;;;32.20;1.00;;;;;;4975871;28;20261;-78
2022/07/28 10:56:36;;;;;;;3.47;1.58;;;31.90;1.00;;;;;;4976455;28;20247;-78
2022/07/28 10:59:15;;;;;;;5.32;1.17;;;31.50;1.00;;;;;;4971091;28;20274;-78
2022/07/28 11:01:43;;;;;;;3.97;1.63;;;32.70;1.00;;;;;;4957238;29;20289;-78
2022/07/28 11:04:51;;;;;;;2.10;1.20;;;34.30;1.00;;;;;;4956499;29;20327;-78
2022/07/28 11:07:18;;;;;;;3.03;1.33;;;35.60;1.00;;;;;;4956637;29;20259;-78
2022/07/28 11:09:47;;;;;;;2.45;1.20;;;35.90;1.00;;;;;;4954208;29;20203;-78
2022/07/28 11:12:15;;;;;;;2.45;1.10;;;33.80;1.00;;;;;;4937550;29;20212;-78
2022/07/28 11:14:44;;;;;;;3.22;1.20;;;33.10;1.00;;;;;;4937848;29;20577;-77
2022/07/28 11:17:19;;;;;;;2.58;1.30;;;33.00;1.00;;;;;;4937109;29;20200;-77
2022/07/28 11:19:57;;;;;;;3.33;1.10;;;34.60;1.00;;;;;;4937449;29;20299;-78
2022/07/28 11:22:28;;;;;;;2.17;1.27;;;35.70;1.00;;;;;;4937330;29;20290;-78
2022/07/28 11:25:11;;;;;;;2.78;1.23;;;34.90;1.00;;;;;;4937547;29;20206;-78
2022/07/28 11:28:04;;;;;;;2.45;1.20;;;33.30;1.00;;;;;;4937431;29;20310;-77
2022/07/28 11:30:56;;;;;;;1.48;1.10;;;32.30;1.00;;;;;;4937212;29;20204;-78
2022/07/28 11:33:26;;;;;;;2.45;1.08;;;34.60;1.00;;;;;;4937290;29;20208;-78
2022/07/28 11:35:57;;;;;;;1.60;1.08;;;36.10;1.00;;;;;;4937114;29;20263;-78
2022/07/28 11:38:24;;;;;;;4.25;1.00;;;37.70;1.00;;;;;;4936928;29;20199;-78
2022/07/28 11:40:53;;;;;;;4.38;1.38;;;37.50;1.00;;;;;;4936860;29;20727;-78
2022/07/28 11:43:37;;;;;;;2.75;1.23;;;37.00;1.00;;;;;;4937025;29;20735;-78
2022/07/28 11:46:34;;;;;;;1.90;1.25;;;37.40;1.00;;;;;;4937323;29;20199;-78
2022/07/28 11:49:28;;;;;;;1.90;1.20;;;37.40;1.00;;;;;;4936725;29;20223;-78
2022/07/28 11:52:12;;;;;;;3.85;1.30;;;38.40;1.00;;;;;;4877846;29;20273;-78
2022/07/28 11:54:41;;;;;;;2.00;1.38;;;37.20;1.00;;;;;;4877956;29;20417;-78
2022/07/28 11:57:10;;;;;;;3.47;1.10;;;36.60;1.00;;;;;;4878071;29;20213;-78
2022/07/28 11:59:45;;;;;;;3.35;1.27;;;34.20;1.00;;;;;;4896069;29;20242;-78
2022/07/28 12:02:17;;;;;;;1.75;1.10;;;34.10;1.00;;;;;;4915594;29;20291;-77
2022/07/28 12:04:44;;;;;;;3.42;1.20;;;32.90;1.00;;;;;;4915343;29;20250;-78
2022/07/28 12:07:12;;;;;;;3.20;1.15;;;31.30;1.00;;;;;;4915301;29;20610;-78
2022/07/28 12:09:39;;;;;;;2.38;1.20;;;31.80;1.00;;;;;;4915066;29;20788;-77
2022/07/28 12:12:08;;;;;;;3.75;1.33;;;33.40;1.00;;;;;;4915580;29;20684;-77
2022/07/28 12:14:42;;;;;;;3.42;1.27;;;33.60;1.00;;;;;;4915291;29;20291;-77
2022/07/28 12:17:09;;;;;;;2.60;1.10;;;32.50;1.00;;;;;;4915137;29;20211;-77
2022/07/28 12:19:37;;;;;;;1.27;1.17;;;30.60;1.00;;;;;;4914952;29;20200;-77
2022/07/28 12:22:10;;;;;;;3.80;1.27;;;29.90;1.00;;;;;;4915110;29;20232;-77
2022/07/28 12:24:37;;;;;;;3.47;1.30;;;30.10;1.00;;;;;;4915231;29;20260;-77
2022/07/28 12:27:05;;;;;;;2.33;1.40;;;30.10;1.00;;;;;;4924777;29;20615;-77
2022/07/28 12:29:32;;;;;;;4.55;1.40;;;30.90;1.00;;;;;;4955319;28;20679;-77
2022/07/28 12:32:01;;;;;;;1.52;1.23;;;31.80;1.00;;;;;;4955272;29;20215;-77
2022/07/28 12:34:29;;;;;;;2.60;1.50;;;34.00;1.00;;;;;;4954770;29;20270;-77
2022/07/28 12:37:00;;;;;;;4.05;1.30;;;33.10;1.00;;;;;;4955371;28;20254;-77
2022/07/28 12:39:28;;;;;;;2.53;1.40;;;31.70;1.00;;;;;;4955514;28;20210;-77
2022/07/28 12:42:03;;;;;;;3.35;1.27;;;30.80;1.00;;;;;;4955554;29;20297;-77
2022/07/28 12:44:37;;;;;;;3.33;1.17;;;30.40;1.00;;;;;;4955160;28;20651;-77
2022/07/28 12:47:06;;;;;;;3.00;1.10;;;30.40;1.00;;;;;;4955531;28;20203;-77
2022/07/28 12:49:34;;;;;;;2.35;1.15;;;30.30;1.00;;;;;;4955031;29;20227;-77
2022/07/28 12:52:16;;;;;;;3.95;1.25;;;30.00;1.00;;;;;;4955151;28;20210;-77
2022/07/28 12:54:43;;;;;;;2.13;1.30;;;29.80;1.00;;;;;;4955033;28;20644;-77
2022/07/28 12:57:10;;;;;;;2.58;1.45;;;30.30;1.00;;;;;;4955035;29;20234;-77
2022/07/28 12:59:38;;;;;;;4.65;1.33;;;30.10;1.00;;;;;;4964232;28;20234;-77
2022/07/28 13:02:08;;;;;;;3.92;1.30;;;32.50;1.00;;;;;;4974471;28;20203;-77